Time;durP1;ratioP1;P1;durP2;ratioP2;P2;SDS_P1;SDS_P2;PMS_P1;PMS_P2;Temp;Humidity;BMP_temperature;BMP_pressure;BME280_temperature;BME280_humidity;BME280_pressure;Samples;Min_cycle;Max_cycle;Signal;HPM_P1;HPM_P2
2021/06/17 00:00:53;;;;;;;6.00;4.68;;;;;;;;;;1899640;75;20098;-81
2021/06/17 00:03:22;;;;;;;9.43;5.22;;;;;;;;;;1900480;75;20130;-82
2021/06/17 00:05:49;;;;;;;10.38;4.65;;;;;;;;;;1904606;75;20090;-81
2021/06/17 00:08:20;;;;;;;5.95;4.72;;;;;;;;;;1906284;75;20078;-79
2021/06/17 00:10:55;;;;;;;7.50;4.30;;;;;;;;;;1905699;75;20097;-82
2021/06/17 00:13:24;;;;;;;6.35;4.43;;;;;;;;;;1901780;75;20114;-80
2021/06/17 00:15:53;;;;;;;5.32;4.25;;;;;;;;;;1900709;67;20138;-82
2021/06/17 00:18:20;;;;;;;5.97;4.25;;;;;;;;;;1899614;75;20096;-81
2021/06/17 00:20:47;;;;;;;5.07;4.18;;;;;;;;;;1899845;75;20105;-82
2021/06/17 00:23:15;;;;;;;6.55;4.45;;;;;;;;;;1900401;75;20102;-81
2021/06/17 00:25:44;;;;;;;5.75;4.53;;;;;;;;;;1900692;75;20090;-80
2021/06/17 00:28:11;;;;;;;5.75;4.40;;;;;;;;;;1900081;75;20090;-81
2021/06/17 00:30:39;;;;;;;6.35;4.60;;;;;;;;;;1900445;75;20090;-82
2021/06/17 00:33:08;;;;;;;5.47;4.25;;;;;;;;;;1899968;75;20093;-82
2021/06/17 00:35:37;;;;;;;5.10;3.88;;;;;;;;;;1900249;75;20133;-81
2021/06/17 00:38:04;;;;;;;6.80;4.40;;;;;;;;;;1900058;75;20555;-81
2021/06/17 00:40:32;;;;;;;7.22;4.35;;;;;;;;;;1900128;75;20431;-81
2021/06/17 00:43:01;;;;;;;5.95;4.32;;;;;;;;;;1900261;75;20085;-81
2021/06/17 00:45:30;;;;;;;7.10;4.50;;;;;;;;;;1900103;75;20090;-81
2021/06/17 00:47:57;;;;;;;6.75;4.47;;;;;;;;;;1900298;75;20093;-82
2021/06/17 00:50:28;;;;;;;7.63;4.43;;;;;;;;;;1900257;75;20121;-80
2021/06/17 00:52:55;;;;;;;6.22;4.20;;;;;;;;;;1900349;75;20427;-82
2021/06/17 00:55:22;;;;;;;7.18;4.47;;;;;;;;;;1900109;75;20205;-82
2021/06/17 00:57:49;;;;;;;6.78;4.32;;;;;;;;;;1900307;75;20160;-81
2021/06/17 01:00:19;;;;;;;5.60;4.32;;;;;;;;;;1900087;75;20094;-82
2021/06/17 01:02:46;;;;;;;6.63;4.70;;;;;;;;;;1900230;75;20098;-80
2021/06/17 01:05:16;;;;;;;5.78;4.50;;;;;;;;;;1900547;75;20098;-81
2021/06/17 01:07:48;;;;;;;6.80;4.60;;;;;;;;;;1900512;75;20089;-81
2021/06/17 01:10:25;;;;;;;5.82;4.72;;;;;;;;;;1900948;75;20125;-81
2021/06/17 01:13:02;;;;;;;6.13;4.68;;;;;;;;;;1903626;75;20089;-81
2021/06/17 01:15:32;;;;;;;6.50;4.72;;;;;;;;;;1904435;67;20093;-80
2021/06/17 01:18:01;;;;;;;;;;;;;;;;;;1903666;75;20458;-82
2021/06/17 01:20:31;;;;;;;6.00;4.30;;;;;;;;;;1903015;75;19965;-82
2021/06/17 01:23:09;;;;;;;5.70;4.30;;;;;;;;;;1903065;75;20089;-82
2021/06/17 01:25:52;;;;;;;7.55;4.60;;;;;;;;;;1903011;75;20085;-81
2021/06/17 01:28:21;;;;;;;7.55;4.28;;;;;;;;;;1903106;75;20086;-80
2021/06/17 01:30:58;;;;;;;7.40;4.25;;;;;;;;;;1901675;75;20164;-80
2021/06/17 01:33:28;;;;;;;7.88;4.45;;;;;;;;;;1902425;75;20117;-81
2021/06/17 01:36:00;;;;;;;6.28;4.90;;;;;;;;;;1902855;75;20096;-80
2021/06/17 01:38:27;;;;;;;6.45;4.35;;;;;;;;;;1903331;75;20141;-80
2021/06/17 01:40:56;;;;;;;7.75;4.78;;;;;;;;;;1902942;75;20167;-80
2021/06/17 01:43:25;;;;;;;7.70;4.90;;;;;;;;;;1903255;75;20144;-80
2021/06/17 01:45:54;;;;;;;7.53;5.20;;;;;;;;;;1903049;75;20159;-80
2021/06/17 01:48:22;;;;;;;6.50;5.18;;;;;;;;;;1903202;75;20100;-80
2021/06/17 01:50:50;;;;;;;6.53;4.90;;;;;;;;;;1902984;75;20093;-80
2021/06/17 01:53:21;;;;;;;6.60;4.60;;;;;;;;;;1902906;75;20094;-80
2021/06/17 01:55:51;;;;;;;6.22;4.90;;;;;;;;;;1902648;75;20500;-80
2021/06/17 01:58:19;;;;;;;;;;;;;;;;;;1903079;75;20093;-82
2021/06/17 02:00:48;;;;;;;6.13;4.60;;;;;;;;;;1900635;75;19973;-81
2021/06/17 02:03:17;;;;;;;6.18;4.85;;;;;;;;;;1900091;75;20086;-81
2021/06/17 02:05:44;;;;;;;6.80;4.47;;;;;;;;;;1900034;75;20141;-81
2021/06/17 02:08:12;;;;;;;7.95;5.05;;;;;;;;;;1900071;75;20101;-81
2021/06/17 02:10:39;;;;;;;8.25;4.93;;;;;;;;;;1900478;75;20119;-82
2021/06/17 02:13:07;;;;;;;7.85;5.13;;;;;;;;;;1902795;75;20132;-81
2021/06/17 02:15:36;;;;;;;6.75;5.65;;;;;;;;;;1902954;75;20101;-81
2021/06/17 02:18:06;;;;;;;6.97;4.95;;;;;;;;;;1902950;75;20093;-82
2021/06/17 02:20:34;;;;;;;7.27;5.30;;;;;;;;;;1902407;75;20144;-80
2021/06/17 02:23:04;;;;;;;6.53;5.10;;;;;;;;;;1903460;75;20086;-82
2021/06/17 02:25:31;;;;;;;;;;;;;;;;;;1903240;75;20104;-81
2021/06/17 02:28:02;;;;;;;7.32;5.53;;;;;;;;;;1903462;75;19987;-81
2021/06/17 02:30:32;;;;;;;10.05;5.28;;;;;;;;;;1903800;75;20094;-79
2021/06/17 02:37:10;;;;;;;7.35;5.40;;;;;;;;;;1905240;75;20128;-81
2021/06/17 02:39:40;;;;;;;7.47;5.10;;;;;;;;;;1903252;75;20143;-81
2021/06/17 02:42:08;;;;;;;7.45;5.30;;;;;;;;;;1902828;75;20089;-81
2021/06/17 02:44:35;;;;;;;11.07;5.47;;;;;;;;;;1903106;75;20150;-81
2021/06/17 02:47:02;;;;;;;9.85;6.22;;;;;;;;;;1902818;75;20109;-81
2021/06/17 02:49:29;;;;;;;7.45;5.78;;;;;;;;;;1903199;75;20117;-81
2021/06/17 02:51:56;;;;;;;8.63;5.82;;;;;;;;;;1902748;75;20125;-81
2021/06/17 02:54:23;;;;;;;8.40;5.57;;;;;;;;;;1903123;75;20128;-80
2021/06/17 02:57:02;;;;;;;9.52;6.22;;;;;;;;;;1902850;75;20093;-81
2021/06/17 02:59:57;;;;;;;7.50;6.18;;;;;;;;;;1901813;75;20508;-82
2021/06/17 03:02:34;;;;;;;8.68;6.15;;;;;;;;;;1899772;75;20093;-80
2021/06/17 03:05:09;;;;;;;8.77;6.38;;;;;;;;;;1899968;75;20598;-81
2021/06/17 03:07:42;;;;;;;7.53;5.85;;;;;;;;;;1899328;75;20432;-81
2021/06/17 03:10:11;;;;;;;8.27;6.25;;;;;;;;;;1899821;75;20120;-82
2021/06/17 03:12:43;;;;;;;7.13;5.65;;;;;;;;;;1899679;75;20152;-82
2021/06/17 03:15:12;;;;;;;9.98;6.68;;;;;;;;;;1900343;67;20113;-82
2021/06/17 03:17:44;;;;;;;10.05;6.78;;;;;;;;;;1899469;75;20449;-82
2021/06/17 03:20:11;;;;;;;8.13;6.50;;;;;;;;;;1899940;75;20178;-81
2021/06/17 03:22:42;;;;;;;7.75;6.55;;;;;;;;;;1899742;75;20090;-82
2021/06/17 03:25:15;;;;;;;9.80;6.55;;;;;;;;;;1899711;75;20121;-81
2021/06/17 03:27:44;;;;;;;8.25;6.18;;;;;;;;;;1899967;75;20090;-82
2021/06/17 03:30:13;;;;;;;8.15;6.78;;;;;;;;;;1900070;75;20089;-81
2021/06/17 03:32:41;;;;;;;12.68;7.72;;;;;;;;;;1899759;75;20093;-81
2021/06/17 03:35:09;;;;;;;7.25;6.03;;;;;;;;;;1899931;75;20137;-80
2021/06/17 03:37:36;;;;;;;9.25;6.75;;;;;;;;;;1900031;75;20101;-81
2021/06/17 03:40:05;;;;;;;8.07;6.60;;;;;;;;;;1899886;75;20089;-82
2021/06/17 03:42:34;;;;;;;8.60;6.43;;;;;;;;;;1900230;75;20098;-81
2021/06/17 03:45:02;;;;;;;8.48;6.20;;;;;;;;;;1900122;75;20093;-82
2021/06/17 03:47:32;;;;;;;6.68;5.85;;;;;;;;;;1899946;75;20086;-82
2021/06/17 03:49:59;;;;;;;7.65;6.10;;;;;;;;;;1904188;75;20109;-80
2021/06/17 03:52:27;;;;;;;7.38;6.25;;;;;;;;;;1905537;75;20117;-81
2021/06/17 03:54:58;;;;;;;9.85;6.57;;;;;;;;;;1905855;75;20094;-81
2021/06/17 03:57:25;;;;;;;9.00;6.28;;;;;;;;;;1905902;75;20090;-81
2021/06/17 03:59:55;;;;;;;11.80;7.25;;;;;;;;;;1905792;75;20078;-80
2021/06/17 04:02:25;;;;;;;10.43;7.43;;;;;;;;;;1905497;75;20114;-82
2021/06/17 04:04:52;;;;;;;8.77;7.07;;;;;;;;;;1906123;75;20205;-81
2021/06/17 04:07:22;;;;;;;10.05;6.85;;;;;;;;;;1906463;75;20304;-82
2021/06/17 04:09:51;;;;;;;10.38;6.68;;;;;;;;;;1906557;75;20089;-82
2021/06/17 04:12:22;;;;;;;9.90;7.07;;;;;;;;;;1906504;75;20090;-81
2021/06/17 04:14:50;;;;;;;9.88;7.53;;;;;;;;;;1906475;75;20078;-81
2021/06/17 04:17:20;;;;;;;8.40;6.78;;;;;;;;;;1907120;67;20115;-80
2021/06/17 04:19:49;;;;;;;8.77;7.03;;;;;;;;;;1905220;75;20117;-80
2021/06/17 04:22:17;;;;;;;8.02;7.15;;;;;;;;;;1906203;75;20097;-80
2021/06/17 04:24:52;;;;;;;9.52;6.97;;;;;;;;;;1906160;75;20125;-81
2021/06/17 04:27:20;;;;;;;11.25;7.53;;;;;;;;;;1906242;75;20113;-81
2021/06/17 04:29:52;;;;;;;9.32;6.90;;;;;;;;;;1902365;75;20145;-82
2021/06/17 04:32:19;;;;;;;9.15;7.18;;;;;;;;;;1901002;75;20117;-81
2021/06/17 04:34:48;;;;;;;10.55;6.57;;;;;;;;;;1900530;75;20160;-81
2021/06/17 04:37:18;;;;;;;8.68;7.40;;;;;;;;;;1900548;75;20512;-82
2021/06/17 04:39:45;;;;;;;16.88;8.00;;;;;;;;;;1900027;75;20094;-82
2021/06/17 04:42:14;;;;;;;11.10;7.32;;;;;;;;;;1900047;75;20090;-82
2021/06/17 04:44:43;;;;;;;10.02;7.60;;;;;;;;;;1900669;75;20183;-82
2021/06/17 04:47:10;;;;;;;12.07;7.57;;;;;;;;;;1905755;75;20078;-79
2021/06/17 04:49:41;;;;;;;11.00;7.00;;;;;;;;;;1906840;75;20093;-81
2021/06/17 04:52:15;;;;;;;11.48;7.78;;;;;;;;;;1906575;75;20148;-81
2021/06/17 04:54:45;;;;;;;10.00;7.10;;;;;;;;;;1906662;75;20101;-81
2021/06/17 04:57:12;;;;;;;11.30;7.38;;;;;;;;;;1904260;75;20086;-83
2021/06/17 04:59:43;;;;;;;10.57;6.97;;;;;;;;;;1901508;75;20090;-82
2021/06/17 05:02:10;;;;;;;9.40;7.35;;;;;;;;;;1903377;75;20093;-82
2021/06/17 05:04:38;;;;;;;10.48;7.45;;;;;;;;;;1902946;75;20105;-80
2021/06/17 05:07:27;;;;;;;9.68;7.05;;;;;;;;;;1903557;75;20136;-81
2021/06/17 05:12:39;;;;;;;11.68;7.95;;;;;;;;;;1900444;75;20092;-81
2021/06/17 05:15:07;;;;;;;10.98;7.70;;;;;;;;;;1900669;75;20125;-81
2021/06/17 05:17:34;;;;;;;10.48;7.28;;;;;;;;;;1905803;75;20082;-82
2021/06/17 05:20:01;;;;;;;11.40;7.45;;;;;;;;;;1906162;75;20114;-83
2021/06/17 05:22:28;;;;;;;9.93;7.60;;;;;;;;;;1902480;75;20094;-82
2021/06/17 05:24:56;;;;;;;11.25;8.15;;;;;;;;;;1901478;75;20090;-82
2021/06/17 05:27:23;;;;;;;12.48;8.48;;;;;;;;;;1899946;75;20096;-82
2021/06/17 05:29:50;;;;;;;11.27;8.07;;;;;;;;;;1899954;75;20086;-82
2021/06/17 05:32:18;;;;;;;11.85;8.35;;;;;;;;;;1899901;75;20440;-81
2021/06/17 05:34:45;;;;;;;14.35;9.00;;;;;;;;;;1900432;75;20089;-81
2021/06/17 05:37:12;;;;;;;11.25;8.52;;;;;;;;;;1900003;75;20101;-82
2021/06/17 05:39:40;;;;;;;12.73;9.32;;;;;;;;;;1900183;75;20108;-81
2021/06/17 05:42:08;;;;;;;11.27;9.07;;;;;;;;;;1899853;75;20090;-81
2021/06/17 05:44:36;;;;;;;12.55;9.18;;;;;;;;;;1899802;75;20090;-81
2021/06/17 05:47:02;;;;;;;11.52;8.88;;;;;;;;;;1900216;75;20109;-81
2021/06/17 05:49:29;;;;;;;14.90;10.00;;;;;;;;;;1899914;75;20094;-81
2021/06/17 05:51:56;;;;;;;15.60;8.82;;;;;;;;;;1900169;75;20090;-82
2021/06/17 05:54:23;;;;;;;12.38;8.07;;;;;;;;;;1900263;75;20117;-82
2021/06/17 05:56:50;;;;;;;12.23;7.50;;;;;;;;;;1900446;75;20141;-82
2021/06/17 05:59:19;;;;;;;10.25;8.13;;;;;;;;;;1900102;75;20125;-83
2021/06/17 06:01:46;;;;;;;11.00;7.97;;;;;;;;;;1899969;75;20094;-81
2021/06/17 06:04:13;;;;;;;8.98;7.32;;;;;;;;;;1900108;75;20121;-81
2021/06/17 06:06:40;;;;;;;9.00;6.40;;;;;;;;;;1900029;75;20090;-82
2021/06/17 06:09:06;;;;;;;7.90;6.25;;;;;;;;;;1901064;75;20113;-81
2021/06/17 06:11:33;;;;;;;9.40;6.60;;;;;;;;;;1900543;75;20148;-81
2021/06/17 06:14:00;;;;;;;10.30;6.85;;;;;;;;;;1902431;75;20392;-81
2021/06/17 06:16:28;;;;;;;8.60;6.78;;;;;;;;;;1903999;67;20090;-81
2021/06/17 06:18:55;;;;;;;11.38;6.60;;;;;;;;;;1903063;75;20144;-81
2021/06/17 06:21:22;;;;;;;11.82;7.20;;;;;;;;;;1903125;75;20165;-81
2021/06/17 06:23:49;;;;;;;8.88;7.43;;;;;;;;;;1903193;75;20097;-83
2021/06/17 06:26:16;;;;;;;13.40;7.90;;;;;;;;;;1902848;75;20147;-81
2021/06/17 06:28:43;;;;;;;12.70;8.00;;;;;;;;;;1903588;75;20093;-80
2021/06/17 06:31:10;;;;;;;8.27;7.00;;;;;;;;;;1903469;75;20093;-81
2021/06/17 06:33:38;;;;;;;11.05;7.28;;;;;;;;;;1904260;75;20097;-81
2021/06/17 06:36:06;;;;;;;11.13;7.40;;;;;;;;;;1909444;75;20109;-84
2021/06/17 06:38:32;;;;;;;11.52;7.55;;;;;;;;;;1909369;75;20090;-80
2021/06/17 06:41:00;;;;;;;11.85;7.63;;;;;;;;;;1909189;75;20109;-85
2021/06/17 06:43:26;;;;;;;9.50;6.93;;;;;;;;;;1908116;75;20104;-83
2021/06/17 06:45:54;;;;;;;9.95;7.20;;;;;;;;;;1901855;75;20093;-82
2021/06/17 06:48:21;;;;;;;8.02;6.45;;;;;;;;;;1901704;75;20097;-80
2021/06/17 06:50:49;;;;;;;9.70;6.13;;;;;;;;;;1901409;75;20152;-82
2021/06/17 06:53:16;;;;;;;8.48;6.35;;;;;;;;;;1901485;75;20094;-81
2021/06/17 06:55:43;;;;;;;9.93;6.95;;;;;;;;;;1902211;75;20143;-81
2021/06/17 06:58:12;;;;;;;12.00;6.28;;;;;;;;;;1901536;75;20094;-81
2021/06/17 07:00:47;;;;;;;8.15;5.78;;;;;;;;;;1901513;75;20155;-82
2021/06/17 07:03:21;;;;;;;7.00;5.80;;;;;;;;;;1902109;75;20086;-81
2021/06/17 07:05:49;;;;;;;8.00;5.65;;;;;;;;;;1902271;75;20484;-81
2021/06/17 07:08:19;;;;;;;7.65;6.13;;;;;;;;;;1902546;75;20582;-81
2021/06/17 07:11:01;;;;;;;7.40;5.53;;;;;;;;;;1902232;75;20705;-81
2021/06/17 07:13:29;;;;;;;9.48;5.97;;;;;;;;;;1902253;75;20161;-82
2021/06/17 07:15:56;;;;;;;6.53;5.18;;;;;;;;;;1902456;67;20455;-83
2021/06/17 07:18:22;;;;;;;7.57;6.63;;;;;;;;;;1902633;75;20089;-81
2021/06/17 07:20:51;;;;;;;8.60;6.20;;;;;;;;;;1902636;75;20102;-81
2021/06/17 07:23:17;;;;;;;9.48;6.35;;;;;;;;;;1902458;75;20094;-81
2021/06/17 07:25:44;;;;;;;6.78;6.05;;;;;;;;;;1902619;75;20089;-81
2021/06/17 07:28:11;;;;;;;8.68;6.25;;;;;;;;;;1902252;75;20089;-82
2021/06/17 07:30:38;;;;;;;9.85;7.20;;;;;;;;;;1901985;75;20156;-82
2021/06/17 07:33:09;;;;;;;10.00;7.15;;;;;;;;;;1902064;75;20100;-82
2021/06/17 07:35:43;;;;;;;10.73;7.05;;;;;;;;;;1902478;75;20100;-81
2021/06/17 07:38:11;;;;;;;10.25;7.00;;;;;;;;;;1902367;75;20101;-81
2021/06/17 07:40:42;;;;;;;9.20;7.82;;;;;;;;;;1902587;75;20116;-81
2021/06/17 07:43:12;;;;;;;12.20;7.82;;;;;;;;;;1902488;75;20085;-81
2021/06/17 07:45:46;;;;;;;9.95;7.55;;;;;;;;;;1902938;75;20116;-81
2021/06/17 07:48:14;;;;;;;9.80;7.68;;;;;;;;;;1902639;75;20140;-83
2021/06/17 07:50:42;;;;;;;10.13;7.68;;;;;;;;;;1902584;75;20112;-81
2021/06/17 07:53:11;;;;;;;13.48;11.70;;;;;;;;;;1902611;75;20093;-82
2021/06/17 07:55:37;;;;;;;12.63;8.85;;;;;;;;;;1902479;75;20089;-82
2021/06/17 07:58:04;;;;;;;8.43;6.85;;;;;;;;;;1902509;75;20089;-81
2021/06/17 08:00:31;;;;;;;8.65;7.05;;;;;;;;;;1902936;75;20093;-82
2021/06/17 08:02:59;;;;;;;11.43;7.57;;;;;;;;;;1908886;75;20085;-82
2021/06/17 08:05:26;;;;;;;10.80;7.18;;;;;;;;;;1906775;75;20085;-82
2021/06/17 08:08:02;;;;;;;11.90;6.90;;;;;;;;;;1902585;75;20090;-82
2021/06/17 08:10:56;;;;;;;10.68;7.55;;;;;;;;;;1905638;62;20102;-82
2021/06/17 08:13:42;;;;;;;10.27;7.47;;;;;;;;;;1902902;75;20105;-82
2021/06/17 08:16:08;;;;;;;8.18;6.22;;;;;;;;;;1902957;75;20094;-82
2021/06/17 08:18:41;;;;;;;8.30;6.55;;;;;;;;;;1902414;75;20104;-82
2021/06/17 08:21:08;;;;;;;10.75;7.38;;;;;;;;;;1902937;75;20151;-82
2021/06/17 08:23:35;;;;;;;10.63;7.43;;;;;;;;;;1902941;75;20100;-82
2021/06/17 08:26:12;;;;;;;10.40;7.65;;;;;;;;;;1903016;75;20569;-83
2021/06/17 08:28:42;;;;;;;11.60;7.15;;;;;;;;;;1902449;75;20086;-81
2021/06/17 08:31:10;;;;;;;8.93;6.95;;;;;;;;;;1901769;75;20160;-82
2021/06/17 08:33:40;;;;;;;12.05;7.22;;;;;;;;;;1901702;75;20148;-82
2021/06/17 08:36:12;;;;;;;8.15;7.22;;;;;;;;;;1901619;75;20086;-81
2021/06/17 08:38:47;;;;;;;8.52;6.93;;;;;;;;;;1901559;75;20089;-81
2021/06/17 08:41:16;;;;;;;10.48;7.15;;;;;;;;;;1901527;75;20093;-82
2021/06/17 08:43:54;;;;;;;10.50;7.60;;;;;;;;;;1901799;75;20093;-83
2021/06/17 08:46:42;;;;;;;10.43;6.85;;;;;;;;;;1901992;75;20299;-82
2021/06/17 08:49:18;;;;;;;12.25;7.43;;;;;;;;;;1901789;75;20096;-82
2021/06/17 08:52:13;;;;;;;10.48;6.80;;;;;;;;;;1901877;75;20089;-82
2021/06/17 08:54:43;;;;;;;12.35;9.23;;;;;;;;;;1901126;75;20101;-82
2021/06/17 08:57:15;;;;;;;10.50;7.82;;;;;;;;;;1903509;75;20094;-82
2021/06/17 09:00:30;;;;;;;9.30;7.40;;;;;;;;;;1903599;75;20159;-83
2021/06/17 09:03:10;;;;;;;11.82;8.45;;;;;;;;;;1890973;76;20127;-83
2021/06/17 09:05:39;;;;;;;;;;;;;;;;;;1898857;75;20094;-82
2021/06/17 09:08:08;;;;;;;9.38;7.55;;;;;;;;;;1903617;75;19960;-81
2021/06/17 09:10:39;;;;;;;12.38;7.70;;;;;;;;;;1902569;75;20105;-84
2021/06/17 09:13:07;;;;;;;10.13;8.40;;;;;;;;;;1902730;67;20096;-82
2021/06/17 09:15:40;;;;;;;15.95;7.97;;;;;;;;;;1902073;75;20090;-83
2021/06/17 09:18:12;;;;;;;11.95;7.57;;;;;;;;;;1902393;75;20089;-82
2021/06/17 09:20:43;;;;;;;11.93;7.25;;;;;;;;;;1902271;75;20098;-82
2021/06/17 09:23:22;;;;;;;8.88;7.97;;;;;;;;;;1902296;75;20427;-83
2021/06/17 09:25:50;;;;;;;8.20;6.65;;;;;;;;;;1902502;75;20093;-82
2021/06/17 09:28:18;;;;;;;7.70;6.90;;;;;;;;;;1902978;75;20097;-83
2021/06/17 09:30:46;;;;;;;9.45;7.18;;;;;;;;;;1902844;75;20159;-82
2021/06/17 09:33:15;;;;;;;10.38;7.28;;;;;;;;;;1902553;75;20086;-83
2021/06/17 09:35:54;;;;;;;9.27;6.70;;;;;;;;;;1902384;75;20086;-81
2021/06/17 09:38:23;;;;;;;7.72;6.85;;;;;;;;;;1902398;75;20090;-82
2021/06/17 09:45:58;;;;;;;10.07;7.68;;;;;;;;;;1905386;75;20089;-82
2021/06/17 09:48:44;;;;;;;8.75;7.72;;;;;;;;;;1905528;75;20491;-81
2021/06/17 09:51:36;;;;;;;10.88;6.75;;;;;;;;;;1905152;75;20088;-82
2021/06/17 09:54:15;;;;;;;8.68;6.45;;;;;;;;;;1904819;75;20100;-81
2021/06/17 09:56:43;;;;;;;7.28;6.30;;;;;;;;;;1905059;75;20507;-82
2021/06/17 09:59:10;;;;;;;10.88;6.28;;;;;;;;;;1905036;75;20089;-81
2021/06/17 10:01:42;;;;;;;8.30;6.20;;;;;;;;;;1904658;75;20144;-82
2021/06/17 10:04:11;;;;;;;12.50;6.03;;;;;;;;;;1905105;75;20089;-82
2021/06/17 10:06:40;;;;;;;8.55;6.50;;;;;;;;;;1905043;75;20089;-82
2021/06/17 10:09:08;;;;;;;6.03;5.25;;;;;;;;;;1905099;75;20104;-83
2021/06/17 10:11:36;;;;;;;8.30;6.28;;;;;;;;;;1905117;75;20089;-80
2021/06/17 10:14:05;;;;;;;7.00;5.40;;;;;;;;;;1905249;75;20089;-81
2021/06/17 10:16:33;;;;;;;7.60;5.45;;;;;;;;;;1905206;75;20089;-82
2021/06/17 10:19:02;;;;;;;6.40;4.63;;;;;;;;;;1905084;75;20499;-82
2021/06/17 10:21:31;;;;;;;6.10;4.80;;;;;;;;;;1905051;75;20100;-82
2021/06/17 10:23:59;;;;;;;6.10;4.50;;;;;;;;;;1904876;75;20125;-82
2021/06/17 10:26:30;;;;;;;7.53;4.45;;;;;;;;;;1905361;75;20143;-82
2021/06/17 10:28:58;;;;;;;7.10;4.50;;;;;;;;;;1905414;75;20565;-81
2021/06/17 10:31:45;;;;;;;6.05;4.65;;;;;;;;;;1905382;75;20092;-81
2021/06/17 10:34:36;;;;;;;7.47;5.88;;;;;;;;;;1905245;75;20089;-81
2021/06/17 10:37:14;;;;;;;7.45;6.75;;;;;;;;;;1905156;75;20099;-82
2021/06/17 10:39:43;;;;;;;4.55;3.80;;;;;;;;;;1905308;75;20092;-81
2021/06/17 10:42:19;;;;;;;5.53;4.10;;;;;;;;;;1904848;75;20092;-82
2021/06/17 10:44:48;;;;;;;3.83;2.80;;;;;;;;;;1905021;75;20103;-80
2021/06/17 10:48:11;;;;;;;4.72;3.22;;;;;;;;;;1910474;75;20096;-81
2021/06/17 10:50:55;;;;;;;4.55;3.33;;;;;;;;;;1908824;75;20116;-81
2021/06/17 10:53:44;;;;;;;5.88;3.53;;;;;;;;;;1905195;75;20099;-82
2021/06/17 10:56:16;;;;;;;5.40;3.47;;;;;;;;;;1905071;75;20089;-82
2021/06/17 10:59:05;;;;;;;4.78;3.30;;;;;;;;;;1905046;75;20504;-82
2021/06/17 11:01:41;;;;;;;5.88;3.47;;;;;;;;;;1905158;75;20137;-82
2021/06/17 11:04:44;;;;;;;4.47;3.33;;;;;;;;;;1905127;75;20096;-81
2021/06/17 11:07:19;;;;;;;6.75;3.90;;;;;;;;;;1905125;75;20092;-79
2021/06/17 11:10:01;;;;;;;4.80;3.55;;;;;;;;;;1911955;75;20089;-79
2021/06/17 11:13:02;;;;;;;3.85;3.03;;;;;;;;;;1909008;75;20121;-80
2021/06/17 11:15:43;;;;;;;5.32;3.50;;;;;;;;;;1909168;75;20085;-80
2021/06/17 11:18:10;;;;;;;5.80;3.40;;;;;;;;;;1908209;75;20096;-81
2021/06/17 11:20:42;;;;;;;3.92;3.15;;;;;;;;;;1903358;75;20109;-81
2021/06/17 11:23:11;;;;;;;4.93;3.13;;;;;;;;;;1902978;75;20089;-82
2021/06/17 11:25:46;;;;;;;4.70;3.47;;;;;;;;;;1903232;75;20120;-81
2021/06/17 11:28:15;;;;;;;4.22;3.00;;;;;;;;;;1902156;75;20085;-81
2021/06/17 11:31:00;;;;;;;4.38;3.10;;;;;;;;;;1902267;75;20090;-83
2021/06/17 11:33:49;;;;;;;5.07;2.72;;;;;;;;;;1902203;75;20538;-82
2021/06/17 11:36:20;;;;;;;5.00;3.30;;;;;;;;;;1902138;75;20090;-82
2021/06/17 11:38:53;;;;;;;4.07;2.70;;;;;;;;;;1902491;75;20154;-83
2021/06/17 11:41:23;;;;;;;5.00;2.85;;;;;;;;;;1902016;75;20097;-83
2021/06/17 11:44:00;;;;;;;;;;;;;;;;;;1902630;75;20093;-83
2021/06/17 11:46:34;;;;;;;5.40;3.25;;;;;;;;;;1902967;67;19965;-82
2021/06/17 11:49:04;;;;;;;6.00;2.80;;;;;;;;;;1901695;75;20082;-83
2021/06/17 11:51:42;;;;;;;3.90;2.60;;;;;;;;;;1901825;75;20098;-82
2021/06/17 11:54:21;;;;;;;4.90;2.85;;;;;;;;;;1901907;75;20089;-82
2021/06/17 11:56:57;;;;;;;5.60;2.97;;;;;;;;;;1901904;75;20104;-81
2021/06/17 11:59:28;;;;;;;5.53;3.67;;;;;;;;;;1901955;75;20089;-81
2021/06/17 12:02:22;;;;;;;4.75;2.92;;;;;;;;;;1901599;75;20093;-80
2021/06/17 12:04:56;;;;;;;4.13;2.63;;;;;;;;;;1902495;75;20090;-83
2021/06/17 12:07:28;;;;;;;4.32;3.25;;;;;;;;;;1902644;75;20108;-83
2021/06/17 12:10:06;;;;;;;4.65;2.90;;;;;;;;;;1901920;75;20085;-83
2021/06/17 12:12:33;;;;;;;4.10;2.70;;;;;;;;;;1902188;75;20089;-83
2021/06/17 12:15:01;;;;;;;6.90;2.95;;;;;;;;;;1902343;75;20098;-82
2021/06/17 12:17:33;;;;;;;3.97;3.13;;;;;;;;;;1902864;75;20116;-82
2021/06/17 12:20:09;;;;;;;3.95;2.50;;;;;;;;;;1902362;75;20104;-82
2021/06/17 12:22:36;;;;;;;5.72;3.78;;;;;;;;;;1902433;75;20085;-80
2021/06/17 12:25:06;;;;;;;4.47;2.72;;;;;;;;;;1902643;75;20093;-81
2021/06/17 12:27:33;;;;;;;4.20;2.78;;;;;;;;;;1902606;75;20511;-81
2021/06/17 12:30:25;;;;;;;4.63;2.63;;;;;;;;;;1902448;75;20085;-82
2021/06/17 12:32:52;;;;;;;5.80;2.70;;;;;;;;;;1902126;75;20081;-82
2021/06/17 12:35:24;;;;;;;7.53;2.67;;;;;;;;;;1902499;75;20089;-82
2021/06/17 12:37:59;;;;;;;6.68;3.65;;;;;;;;;;1902462;75;20093;-83
2021/06/17 12:40:36;;;;;;;5.07;2.45;;;;;;;;;;1902802;75;20120;-81
2021/06/17 12:43:10;;;;;;;4.68;2.72;;;;;;;;;;1902918;75;20090;-80
2021/06/17 12:45:38;;;;;;;5.05;2.80;;;;;;;;;;1902328;75;20120;-83
2021/06/17 12:48:31;;;;;;;4.20;2.95;;;;;;;;;;1903457;67;20097;-80
2021/06/17 12:53:57;;;;;;;5.63;3.30;;;;;;;;;;1908931;75;20112;-80
2021/06/17 12:56:25;;;;;;;5.68;3.25;;;;;;;;;;1909514;75;20081;-80
2021/06/17 12:58:53;;;;;;;7.63;3.35;;;;;;;;;;1909491;75;20082;-81
2021/06/17 13:01:22;;;;;;;4.20;2.80;;;;;;;;;;1911956;75;20091;-81
2021/06/17 13:03:50;;;;;;;9.85;3.67;;;;;;;;;;1907181;75;20081;-82
2021/06/17 13:06:41;;;;;;;9.98;4.30;;;;;;;;;;1905634;75;20136;-81
2021/06/17 13:09:24;;;;;;;6.68;3.30;;;;;;;;;;1905363;75;20124;-83
2021/06/17 13:12:15;;;;;;;21.80;8.55;;;;;;;;;;1907794;75;20093;-82
2021/06/17 13:15:05;;;;;;;7.35;4.05;;;;;;;;;;1907865;75;20089;-82
2021/06/17 13:18:05;;;;;;;4.63;3.00;;;;;;;;;;1908035;75;20507;-81
2021/06/17 13:20:34;;;;;;;6.03;3.28;;;;;;;;;;1908676;75;20088;-82
2021/06/17 13:23:08;;;;;;;5.97;3.20;;;;;;;;;;1908185;75;20089;-82
2021/06/17 13:25:36;;;;;;;4.82;2.97;;;;;;;;;;1908090;75;20517;-82
2021/06/17 13:28:27;;;;;;;5.45;3.22;;;;;;;;;;1907928;75;20115;-82
2021/06/17 13:30:54;;;;;;;7.63;3.47;;;;;;;;;;1910751;75;20111;-80
2021/06/17 13:33:21;;;;;;;4.78;3.40;;;;;;;;;;1914858;75;20092;-81
2021/06/17 13:35:48;;;;;;;7.18;3.42;;;;;;;;;;1911854;75;20096;-82
2021/06/17 13:38:18;;;;;;;4.63;3.20;;;;;;;;;;1908825;75;20092;-82
2021/06/17 13:40:45;;;;;;;5.22;3.15;;;;;;;;;;1908251;75;20502;-82
2021/06/17 13:43:14;;;;;;;5.00;3.00;;;;;;;;;;1908477;75;20516;-81
2021/06/17 13:45:42;;;;;;;5.10;3.20;;;;;;;;;;1908475;75;20096;-80
2021/06/17 13:48:10;;;;;;;6.97;4.05;;;;;;;;;;1909085;67;20325;-82
2021/06/17 13:50:37;;;;;;;4.18;2.95;;;;;;;;;;1908541;75;20092;-83
2021/06/17 13:53:06;;;;;;;5.63;3.40;;;;;;;;;;1908190;75;20187;-83
2021/06/17 13:55:34;;;;;;;17.98;6.80;;;;;;;;;;1908791;75;20444;-82
2021/06/17 13:58:01;;;;;;;15.40;7.32;;;;;;;;;;1908015;75;20099;-81
2021/06/17 14:00:30;;;;;;;7.93;3.75;;;;;;;;;;1907865;75;20131;-80
2021/06/17 14:02:57;;;;;;;7.97;4.17;;;;;;;;;;1908318;75;20380;-82
2021/06/17 14:05:24;;;;;;;9.05;4.80;;;;;;;;;;1908559;75;20298;-81
2021/06/17 14:07:51;;;;;;;7.50;4.50;;;;;;;;;;1908350;75;20515;-80
2021/06/17 14:10:20;;;;;;;8.00;3.25;;;;;;;;;;1908031;75;20402;-82
2021/06/17 14:12:51;;;;;;;4.90;3.10;;;;;;;;;;1905359;75;20471;-81
2021/06/17 14:15:18;;;;;;;3.30;2.60;;;;;;;;;;1905339;75;20096;-81
2021/06/17 14:17:46;;;;;;;6.25;3.10;;;;;;;;;;1906029;75;20096;-82
2021/06/17 14:20:17;;;;;;;6.57;3.33;;;;;;;;;;1905613;75;20093;-83
2021/06/17 14:22:44;;;;;;;6.00;3.17;;;;;;;;;;1906057;75;20099;-81
2021/06/17 14:25:14;;;;;;;4.93;2.70;;;;;;;;;;1906686;75;20093;-84
2021/06/17 14:27:43;;;;;;;5.03;2.72;;;;;;;;;;1906089;75;20151;-83
2021/06/17 14:30:11;;;;;;;3.70;2.80;;;;;;;;;;1906793;75;20099;-82
2021/06/17 14:32:38;;;;;;;5.57;3.20;;;;;;;;;;1906923;75;20092;-82
2021/06/17 14:35:07;;;;;;;5.07;2.75;;;;;;;;;;1906713;75;20089;-83
2021/06/17 14:37:38;;;;;;;4.43;2.78;;;;;;;;;;1906124;75;20148;-83
2021/06/17 14:40:07;;;;;;;4.60;2.80;;;;;;;;;;1906094;75;20089;-84
2021/06/17 14:42:34;;;;;;;3.40;2.55;;;;;;;;;;1909639;75;20400;-83
2021/06/17 14:45:05;;;;;;;3.55;2.63;;;;;;;;;;1909423;75;20093;-82
2021/06/17 14:47:35;;;;;;;4.80;2.40;;;;;;;;;;1912145;67;20149;-83
2021/06/17 14:50:03;;;;;;;4.20;2.35;;;;;;;;;;1911681;75;20108;-81
2021/06/17 14:52:31;;;;;;;5.15;2.58;;;;;;;;;;1911883;75;20104;-81
2021/06/17 14:54:58;;;;;;;3.47;2.70;;;;;;;;;;1911812;75;20089;-84
2021/06/17 14:57:27;;;;;;;2.97;2.17;;;;;;;;;;1911990;75;20089;-87
2021/06/17 14:59:57;;;;;;;2.80;2.40;;;;;;;;;;1910458;75;20106;-85
2021/06/17 15:02:23;;;;;;;5.50;3.75;;;;;;;;;;1908931;75;20081;-83
2021/06/17 15:04:50;;;;;;;3.72;2.50;;;;;;;;;;1909014;75;20099;-81
2021/06/17 15:07:18;;;;;;;3.13;2.70;;;;;;;;;;1908908;75;20097;-82
2021/06/17 15:09:46;;;;;;;3.63;2.60;;;;;;;;;;1908844;75;20082;-84
2021/06/17 15:12:13;;;;;;;4.78;3.08;;;;;;;;;;1908820;75;20094;-85
2021/06/17 15:14:40;;;;;;;;;;;;;;;;;;1909117;75;20109;-82
2021/06/17 15:17:07;;;;;;;3.93;3.40;;;;;;;;;;1908983;75;20045;-80
2021/06/17 15:19:35;;;;;;;3.70;2.85;;;;;;;;;;1908840;75;20315;-80